sensor_id;sensor_type;location;lat;lon;timestamp;P1;durP1;ratioP1;P2;durP2;ratioP2
65202;SDS011;51788;45.124;38.966;2023-10-13T00:01:59;74.78;;;25.77;;
65202;SDS011;51788;45.124;38.966;2023-10-13T00:04:29;49.83;;;24.73;;
65202;SDS011;51788;45.124;38.966;2023-10-13T00:06:56;58.38;;;24.75;;
65202;SDS011;51788;45.124;38.966;2023-10-13T00:09:23;48.50;;;24.63;;
65202;SDS011;51788;45.124;38.966;2023-10-13T00:11:58;36.85;;;19.63;;
65202;SDS011;51788;45.124;38.966;2023-10-13T00:14:25;50.10;;;20.02;;
65202;SDS011;51788;45.124;38.966;2023-10-13T00:17:10;47.97;;;20.05;;
65202;SDS011;51788;45.124;38.966;2023-10-13T00:19:45;50.28;;;20.52;;
65202;SDS011;51788;45.124;38.966;2023-10-13T00:22:14;48.30;;;18.75;;
65202;SDS011;51788;45.124;38.966;2023-10-13T00:24:42;35.20;;;17.05;;
65202;SDS011;51788;45.124;38.966;2023-10-13T00:27:14;46.80;;;17.65;;
65202;SDS011;51788;45.124;38.966;2023-10-13T00:29:55;32.97;;;16.95;;
65202;SDS011;51788;45.124;38.966;2023-10-13T00:32:40;45.10;;;15.93;;
65202;SDS011;51788;45.124;38.966;2023-10-13T00:35:11;50.65;;;18.33;;
65202;SDS011;51788;45.124;38.966;2023-10-13T00:37:50;31.10;;;16.50;;
65202;SDS011;51788;45.124;38.966;2023-10-13T00:40:21;29.40;;;17.63;;
65202;SDS011;51788;45.124;38.966;2023-10-13T00:43:01;32.28;;;16.52;;
65202;SDS011;51788;45.124;38.966;2023-10-13T00:48:35;26.08;;;16.70;;
65202;SDS011;51788;45.124;38.966;2023-10-13T00:51:12;31.20;;;18.58;;
65202;SDS011;51788;45.124;38.966;2023-10-13T00:54:01;69.40;;;27.92;;
65202;SDS011;51788;45.124;38.966;2023-10-13T00:56:33;52.55;;;24.58;;
65202;SDS011;51788;45.124;38.966;2023-10-13T00:58:59;57.65;;;25.35;;
65202;SDS011;51788;45.124;38.966;2023-10-13T01:01:28;67.05;;;29.30;;
65202;SDS011;51788;45.124;38.966;2023-10-13T01:03:58;59.42;;;26.52;;
65202;SDS011;51788;45.124;38.966;2023-10-13T01:06:25;57.75;;;26.58;;
65202;SDS011;51788;45.124;38.966;2023-10-13T01:08:59;54.08;;;24.38;;
65202;SDS011;51788;45.124;38.966;2023-10-13T01:11:45;49.13;;;23.92;;
65202;SDS011;51788;45.124;38.966;2023-10-13T01:14:16;52.63;;;23.58;;
65202;SDS011;51788;45.124;38.966;2023-10-13T01:16:43;64.85;;;24.98;;
65202;SDS011;51788;45.124;38.966;2023-10-13T01:19:10;49.20;;;21.95;;
65202;SDS011;51788;45.124;38.966;2023-10-13T01:21:40;45.30;;;21.23;;
65202;SDS011;51788;45.124;38.966;2023-10-13T01:24:07;45.67;;;21.15;;
65202;SDS011;51788;45.124;38.966;2023-10-13T01:26:34;49.53;;;23.02;;
65202;SDS011;51788;45.124;38.966;2023-10-13T01:29:07;30.75;;;19.98;;
65202;SDS011;51788;45.124;38.966;2023-10-13T01:31:41;46.90;;;19.95;;
65202;SDS011;51788;45.124;38.966;2023-10-13T01:34:20;38.03;;;20.90;;
65202;SDS011;51788;45.124;38.966;2023-10-13T01:36:52;37.15;;;20.75;;
65202;SDS011;51788;45.124;38.966;2023-10-13T01:39:21;42.53;;;19.20;;
65202;SDS011;51788;45.124;38.966;2023-10-13T01:41:52;38.97;;;17.47;;
65202;SDS011;51788;45.124;38.966;2023-10-13T01:44:22;48.58;;;17.67;;
65202;SDS011;51788;45.124;38.966;2023-10-13T01:46:58;34.33;;;17.65;;
65202;SDS011;51788;45.124;38.966;2023-10-13T01:49:27;38.22;;;19.92;;
65202;SDS011;51788;45.124;38.966;2023-10-13T01:51:53;43.45;;;18.50;;
65202;SDS011;51788;45.124;38.966;2023-10-13T01:54:19;42.83;;;18.27;;
65202;SDS011;51788;45.124;38.966;2023-10-13T01:56:46;37.58;;;17.95;;
65202;SDS011;51788;45.124;38.966;2023-10-13T01:59:14;37.13;;;16.75;;
65202;SDS011;51788;45.124;38.966;2023-10-13T02:01:41;31.90;;;16.05;;
65202;SDS011;51788;45.124;38.966;2023-10-13T02:04:07;36.78;;;17.23;;
65202;SDS011;51788;45.124;38.966;2023-10-13T02:06:36;31.38;;;17.40;;
65202;SDS011;51788;45.124;38.966;2023-10-13T02:09:08;28.83;;;16.42;;
65202;SDS011;51788;45.124;38.966;2023-10-13T02:11:40;33.38;;;17.15;;
65202;SDS011;51788;45.124;38.966;2023-10-13T02:14:08;35.85;;;16.27;;
65202;SDS011;51788;45.124;38.966;2023-10-13T02:16:37;34.75;;;16.33;;
65202;SDS011;51788;45.124;38.966;2023-10-13T02:19:03;28.10;;;14.40;;
65202;SDS011;51788;45.124;38.966;2023-10-13T02:21:40;23.77;;;13.82;;
65202;SDS011;51788;45.124;38.966;2023-10-13T02:24:09;24.92;;;15.45;;
65202;SDS011;51788;45.124;38.966;2023-10-13T02:26:44;36.85;;;14.43;;
65202;SDS011;51788;45.124;38.966;2023-10-13T02:29:11;27.35;;;13.80;;
65202;SDS011;51788;45.124;38.966;2023-10-13T02:31:40;24.63;;;14.93;;
65202;SDS011;51788;45.124;38.966;2023-10-13T02:34:08;30.10;;;15.55;;
65202;SDS011;51788;45.124;38.966;2023-10-13T02:36:34;20.10;;;14.65;;
65202;SDS011;51788;45.124;38.966;2023-10-13T02:39:13;28.38;;;15.75;;
65202;SDS011;51788;45.124;38.966;2023-10-13T02:41:39;29.38;;;15.95;;
65202;SDS011;51788;45.124;38.966;2023-10-13T02:44:07;40.55;;;16.30;;
65202;SDS011;51788;45.124;38.966;2023-10-13T02:46:34;42.85;;;15.93;;
65202;SDS011;51788;45.124;38.966;2023-10-13T02:49:02;30.80;;;14.52;;
65202;SDS011;51788;45.124;38.966;2023-10-13T02:51:38;27.92;;;15.07;;
65202;SDS011;51788;45.124;38.966;2023-10-13T02:54:08;24.10;;;14.93;;
65202;SDS011;51788;45.124;38.966;2023-10-13T02:56:43;28.73;;;14.98;;
65202;SDS011;51788;45.124;38.966;2023-10-13T02:59:25;29.27;;;14.95;;
65202;SDS011;51788;45.124;38.966;2023-10-13T03:02:14;36.22;;;16.17;;
65202;SDS011;51788;45.124;38.966;2023-10-13T03:04:58;30.85;;;15.27;;
65202;SDS011;51788;45.124;38.966;2023-10-13T03:07:34;29.83;;;16.23;;
65202;SDS011;51788;45.124;38.966;2023-10-13T03:10:02;21.40;;;13.82;;
65202;SDS011;51788;45.124;38.966;2023-10-13T03:12:38;31.05;;;15.45;;
65202;SDS011;51788;45.124;38.966;2023-10-13T03:15:05;27.23;;;14.65;;
65202;SDS011;51788;45.124;38.966;2023-10-13T03:17:39;25.15;;;14.10;;
65202;SDS011;51788;45.124;38.966;2023-10-13T03:20:09;32.50;;;15.82;;
65202;SDS011;51788;45.124;38.966;2023-10-13T03:22:40;29.85;;;14.65;;
65202;SDS011;51788;45.124;38.966;2023-10-13T03:25:14;36.60;;;15.65;;
65202;SDS011;51788;45.124;38.966;2023-10-13T03:27:55;42.78;;;17.25;;
65202;SDS011;51788;45.124;38.966;2023-10-13T03:30:22;44.55;;;15.00;;
65202;SDS011;51788;45.124;38.966;2023-10-13T03:32:55;47.97;;;15.75;;
65202;SDS011;51788;45.124;38.966;2023-10-13T03:35:22;31.95;;;14.88;;
65202;SDS011;51788;45.124;38.966;2023-10-13T03:37:51;28.30;;;13.73;;
65202;SDS011;51788;45.124;38.966;2023-10-13T03:40:17;26.90;;;14.25;;
65202;SDS011;51788;45.124;38.966;2023-10-13T03:45:34;40.88;;;16.23;;
65202;SDS011;51788;45.124;38.966;2023-10-13T03:48:13;62.90;;;13.20;;
65202;SDS011;51788;45.124;38.966;2023-10-13T03:50:56;27.40;;;12.68;;
65202;SDS011;51788;45.124;38.966;2023-10-13T03:53:34;40.47;;;11.52;;
65202;SDS011;51788;45.124;38.966;2023-10-13T03:56:22;48.83;;;16.90;;
65202;SDS011;51788;45.124;38.966;2023-10-13T03:59:05;43.67;;;13.55;;
65202;SDS011;51788;45.124;38.966;2023-10-13T04:01:35;38.67;;;14.10;;
65202;SDS011;51788;45.124;38.966;2023-10-13T04:04:14;37.78;;;15.18;;
65202;SDS011;51788;45.124;38.966;2023-10-13T04:06:55;33.10;;;13.25;;
65202;SDS011;51788;45.124;38.966;2023-10-13T04:09:41;25.73;;;12.13;;
65202;SDS011;51788;45.124;38.966;2023-10-13T04:12:13;17.63;;;11.52;;
65202;SDS011;51788;45.124;38.966;2023-10-13T04:14:58;23.63;;;13.25;;
65202;SDS011;51788;45.124;38.966;2023-10-13T04:17:29;27.30;;;15.30;;
65202;SDS011;51788;45.124;38.966;2023-10-13T04:19:59;33.10;;;14.48;;
65202;SDS011;51788;45.124;38.966;2023-10-13T04:27:58;20.88;;;13.00;;
65202;SDS011;51788;45.124;38.966;2023-10-13T04:30:46;37.25;;;13.30;;
65202;SDS011;51788;45.124;38.966;2023-10-13T04:33:25;21.50;;;13.55;;
65202;SDS011;51788;45.124;38.966;2023-10-13T04:38:48;23.15;;;13.48;;
65202;SDS011;51788;45.124;38.966;2023-10-13T04:41:32;19.13;;;12.13;;
65202;SDS011;51788;45.124;38.966;2023-10-13T04:44:12;28.10;;;12.10;;
65202;SDS011;51788;45.124;38.966;2023-10-13T04:46:59;28.80;;;12.75;;
65202;SDS011;51788;45.124;38.966;2023-10-13T04:49:26;19.70;;;11.98;;
65202;SDS011;51788;45.124;38.966;2023-10-13T04:52:11;22.27;;;13.38;;
65202;SDS011;51788;45.124;38.966;2023-10-13T04:54:43;30.77;;;12.90;;
65202;SDS011;51788;45.124;38.966;2023-10-13T04:57:20;18.05;;;10.63;;
65202;SDS011;51788;45.124;38.966;2023-10-13T05:00:05;13.43;;;9.80;;
65202;SDS011;51788;45.124;38.966;2023-10-13T05:02:35;28.65;;;11.52;;
65202;SDS011;51788;45.124;38.966;2023-10-13T05:05:02;15.10;;;11.38;;
65202;SDS011;51788;45.124;38.966;2023-10-13T05:07:32;24.85;;;11.77;;
65202;SDS011;51788;45.124;38.966;2023-10-13T05:10:17;13.52;;;10.82;;
65202;SDS011;51788;45.124;38.966;2023-10-13T05:13:02;23.67;;;9.95;;
65202;SDS011;51788;45.124;38.966;2023-10-13T05:15:50;19.05;;;11.52;;
65202;SDS011;51788;45.124;38.966;2023-10-13T05:18:35;19.48;;;9.75;;
65202;SDS011;51788;45.124;38.966;2023-10-13T05:21:20;46.30;;;12.60;;
65202;SDS011;51788;45.124;38.966;2023-10-13T05:24:04;22.95;;;12.77;;
65202;SDS011;51788;45.124;38.966;2023-10-13T05:26:49;24.48;;;12.70;;
65202;SDS011;51788;45.124;38.966;2023-10-13T05:29:38;27.38;;;12.50;;
65202;SDS011;51788;45.124;38.966;2023-10-13T05:32:23;44.35;;;11.15;;
65202;SDS011;51788;45.124;38.966;2023-10-13T05:35:08;34.63;;;12.07;;
65202;SDS011;51788;45.124;38.966;2023-10-13T05:37:52;18.15;;;10.10;;
65202;SDS011;51788;45.124;38.966;2023-10-13T05:40:37;18.05;;;9.98;;
65202;SDS011;51788;45.124;38.966;2023-10-13T05:43:21;18.00;;;10.63;;
65202;SDS011;51788;45.124;38.966;2023-10-13T05:46:06;36.55;;;9.85;;
65202;SDS011;51788;45.124;38.966;2023-10-13T05:48:50;19.90;;;10.57;;
65202;SDS011;51788;45.124;38.966;2023-10-13T05:51:20;19.40;;;9.77;;
65202;SDS011;51788;45.124;38.966;2023-10-13T05:54:01;15.55;;;8.70;;
65202;SDS011;51788;45.124;38.966;2023-10-13T05:56:47;29.30;;;10.02;;
65202;SDS011;51788;45.124;38.966;2023-10-13T05:59:34;18.52;;;9.35;;
65202;SDS011;51788;45.124;38.966;2023-10-13T06:02:20;21.30;;;9.68;;
65202;SDS011;51788;45.124;38.966;2023-10-13T06:05:06;15.48;;;9.15;;
65202;SDS011;51788;45.124;38.966;2023-10-13T06:07:52;28.73;;;10.45;;
65202;SDS011;51788;45.124;38.966;2023-10-13T06:10:37;16.95;;;9.63;;
65202;SDS011;51788;45.124;38.966;2023-10-13T06:13:22;19.20;;;8.82;;
65202;SDS011;51788;45.124;38.966;2023-10-13T06:18:58;26.23;;;9.90;;
65202;SDS011;51788;45.124;38.966;2023-10-13T06:21:43;16.90;;;10.10;;
65202;SDS011;51788;45.124;38.966;2023-10-13T06:24:28;13.55;;;9.40;;
65202;SDS011;51788;45.124;38.966;2023-10-13T06:27:14;29.00;;;10.57;;
65202;SDS011;51788;45.124;38.966;2023-10-13T06:29:59;17.85;;;9.82;;
65202;SDS011;51788;45.124;38.966;2023-10-13T06:32:26;15.80;;;9.50;;
65202;SDS011;51788;45.124;38.966;2023-10-13T06:34:53;19.63;;;8.70;;
65202;SDS011;51788;45.124;38.966;2023-10-13T06:37:26;11.52;;;7.43;;
65202;SDS011;51788;45.124;38.966;2023-10-13T06:40:10;13.95;;;8.18;;
65202;SDS011;51788;45.124;38.966;2023-10-13T06:42:55;12.98;;;8.40;;
65202;SDS011;51788;45.124;38.966;2023-10-13T06:45:37;7.30;;;6.10;;
65202;SDS011;51788;45.124;38.966;2023-10-13T06:48:03;13.55;;;5.93;;
65202;SDS011;51788;45.124;38.966;2023-10-13T06:50:30;5.25;;;3.10;;
65202;SDS011;51788;45.124;38.966;2023-10-13T06:53:04;5.20;;;4.13;;
65202;SDS011;51788;45.124;38.966;2023-10-13T06:55:30;5.57;;;3.78;;
65202;SDS011;51788;45.124;38.966;2023-10-13T06:58:08;8.35;;;4.35;;
65202;SDS011;51788;45.124;38.966;2023-10-13T07:00:39;7.28;;;3.70;;
65202;SDS011;51788;45.124;38.966;2023-10-13T07:03:06;11.93;;;3.40;;
65202;SDS011;51788;45.124;38.966;2023-10-13T07:08:04;9.63;;;4.38;;
65202;SDS011;51788;45.124;38.966;2023-10-13T07:10:31;2.78;;;2.40;;
65202;SDS011;51788;45.124;38.966;2023-10-13T07:13:10;5.35;;;3.35;;
65202;SDS011;51788;45.124;38.966;2023-10-13T07:15:39;3.67;;;3.00;;
65202;SDS011;51788;45.124;38.966;2023-10-13T07:18:11;3.42;;;2.63;;
65202;SDS011;51788;45.124;38.966;2023-10-13T07:20:41;9.20;;;3.55;;
65202;SDS011;51788;45.124;38.966;2023-10-13T07:23:12;4.05;;;3.50;;
65202;SDS011;51788;45.124;38.966;2023-10-13T07:25:55;9.43;;;3.35;;
65202;SDS011;51788;45.124;38.966;2023-10-13T07:28:28;3.97;;;2.88;;
65202;SDS011;51788;45.124;38.966;2023-10-13T07:31:02;9.63;;;4.15;;
65202;SDS011;51788;45.124;38.966;2023-10-13T07:33:28;3.90;;;2.75;;
65202;SDS011;51788;45.124;38.966;2023-10-13T07:36:06;5.53;;;2.85;;
65202;SDS011;51788;45.124;38.966;2023-10-13T07:38:51;5.78;;;2.72;;
65202;SDS011;51788;45.124;38.966;2023-10-13T07:41:36;18.55;;;2.90;;
65202;SDS011;51788;45.124;38.966;2023-10-13T07:44:02;10.48;;;2.70;;
65202;SDS011;51788;45.124;38.966;2023-10-13T07:46:30;2.53;;;2.30;;
65202;SDS011;51788;45.124;38.966;2023-10-13T07:48:58;9.00;;;2.50;;
65202;SDS011;51788;45.124;38.966;2023-10-13T07:51:45;3.10;;;2.30;;
65202;SDS011;51788;45.124;38.966;2023-10-13T07:54:14;3.80;;;2.22;;
65202;SDS011;51788;45.124;38.966;2023-10-13T07:56:47;4.25;;;3.03;;
65202;SDS011;51788;45.124;38.966;2023-10-13T07:59:13;2.55;;;2.33;;
65202;SDS011;51788;45.124;38.966;2023-10-13T08:01:42;2.58;;;2.38;;
65202;SDS011;51788;45.124;38.966;2023-10-13T08:04:08;5.55;;;2.05;;
65202;SDS011;51788;45.124;38.966;2023-10-13T08:06:38;3.15;;;2.20;;
65202;SDS011;51788;45.124;38.966;2023-10-13T08:09:08;9.18;;;2.35;;
65202;SDS011;51788;45.124;38.966;2023-10-13T08:11:35;2.00;;;1.90;;
65202;SDS011;51788;45.124;38.966;2023-10-13T08:14:03;5.18;;;2.30;;
65202;SDS011;51788;45.124;38.966;2023-10-13T08:16:39;8.20;;;2.58;;
65202;SDS011;51788;45.124;38.966;2023-10-13T08:19:39;15.90;;;2.55;;
65202;SDS011;51788;45.124;38.966;2023-10-13T08:22:08;2.63;;;2.40;;
65202;SDS011;51788;45.124;38.966;2023-10-13T08:24:44;3.50;;;2.28;;
65202;SDS011;51788;45.124;38.966;2023-10-13T08:27:11;11.27;;;2.38;;
65202;SDS011;51788;45.124;38.966;2023-10-13T08:29:57;2.38;;;2.17;;
65202;SDS011;51788;45.124;38.966;2023-10-13T08:32:23;7.97;;;2.65;;
65202;SDS011;51788;45.124;38.966;2023-10-13T08:35:02;7.00;;;3.17;;
65202;SDS011;51788;45.124;38.966;2023-10-13T08:37:29;3.15;;;2.50;;
65202;SDS011;51788;45.124;38.966;2023-10-13T08:40:15;3.25;;;2.15;;
65202;SDS011;51788;45.124;38.966;2023-10-13T08:43:09;3.20;;;2.08;;
65202;SDS011;51788;45.124;38.966;2023-10-13T08:45:37;3.08;;;2.60;;
65202;SDS011;51788;45.124;38.966;2023-10-13T08:48:10;2.42;;;1.98;;
65202;SDS011;51788;45.124;38.966;2023-10-13T08:50:50;7.60;;;2.30;;
65202;SDS011;51788;45.124;38.966;2023-10-13T08:58:39;4.45;;;1.80;;
65202;SDS011;51788;45.124;38.966;2023-10-13T09:01:26;4.20;;;2.25;;
65202;SDS011;51788;45.124;38.966;2023-10-13T09:04:06;2.28;;;2.00;;
65202;SDS011;51788;45.124;38.966;2023-10-13T09:06:56;1.92;;;1.70;;
65202;SDS011;51788;45.124;38.966;2023-10-13T09:09:32;2.10;;;1.90;;
65202;SDS011;51788;45.124;38.966;2023-10-13T09:14:58;6.78;;;2.25;;
65202;SDS011;51788;45.124;38.966;2023-10-13T09:17:41;43.70;;;4.93;;
65202;SDS011;51788;45.124;38.966;2023-10-13T09:20:29;3.40;;;1.95;;
65202;SDS011;51788;45.124;38.966;2023-10-13T09:23:13;4.50;;;1.63;;
65202;SDS011;51788;45.124;38.966;2023-10-13T09:25:50;15.95;;;4.25;;
65202;SDS011;51788;45.124;38.966;2023-10-13T09:28:23;8.00;;;2.38;;
65202;SDS011;51788;45.124;38.966;2023-10-13T09:30:53;5.78;;;2.03;;
65202;SDS011;51788;45.124;38.966;2023-10-13T09:33:24;2.17;;;1.95;;
65202;SDS011;51788;45.124;38.966;2023-10-13T09:36:01;8.00;;;2.50;;
65202;SDS011;51788;45.124;38.966;2023-10-13T09:38:36;3.92;;;2.17;;
65202;SDS011;51788;45.124;38.966;2023-10-13T09:41:05;2.10;;;1.80;;
65202;SDS011;51788;45.124;38.966;2023-10-13T09:43:43;4.45;;;2.13;;
65202;SDS011;51788;45.124;38.966;2023-10-13T09:46:10;4.88;;;2.00;;
65202;SDS011;51788;45.124;38.966;2023-10-13T09:48:44;2.95;;;2.22;;
65202;SDS011;51788;45.124;38.966;2023-10-13T09:51:13;8.23;;;2.20;;
65202;SDS011;51788;45.124;38.966;2023-10-13T09:54:08;3.58;;;2.25;;
65202;SDS011;51788;45.124;38.966;2023-10-13T09:56:43;2.05;;;1.70;;
65202;SDS011;51788;45.124;38.966;2023-10-13T09:59:22;2.35;;;2.15;;
65202;SDS011;51788;45.124;38.966;2023-10-13T10:01:51;3.30;;;1.80;;
65202;SDS011;51788;45.124;38.966;2023-10-13T10:04:24;4.57;;;2.35;;
65202;SDS011;51788;45.124;38.966;2023-10-13T10:09:26;5.80;;;2.40;;
65202;SDS011;51788;45.124;38.966;2023-10-13T10:17:42;29.40;;;3.92;;
65202;SDS011;51788;45.124;38.966;2023-10-13T10:20:09;7.03;;;2.20;;
65202;SDS011;51788;45.124;38.966;2023-10-13T10:22:57;7.00;;;2.58;;
65202;SDS011;51788;45.124;38.966;2023-10-13T10:25:33;3.92;;;2.78;;
65202;SDS011;51788;45.124;38.966;2023-10-13T10:28:01;20.10;;;2.20;;
65202;SDS011;51788;45.124;38.966;2023-10-13T10:30:30;7.00;;;3.00;;
65202;SDS011;51788;45.124;38.966;2023-10-13T10:33:01;9.85;;;2.55;;
65202;SDS011;51788;45.124;38.966;2023-10-13T10:35:33;2.30;;;1.55;;
65202;SDS011;51788;45.124;38.966;2023-10-13T10:38:12;12.25;;;2.35;;
65202;SDS011;51788;45.124;38.966;2023-10-13T10:40:49;2.95;;;1.90;;
65202;SDS011;51788;45.124;38.966;2023-10-13T10:43:23;8.65;;;1.83;;
65202;SDS011;51788;45.124;38.966;2023-10-13T10:46:11;2.75;;;1.83;;
65202;SDS011;51788;45.124;38.966;2023-10-13T10:48:38;5.10;;;2.05;;
65202;SDS011;51788;45.124;38.966;2023-10-13T10:51:12;6.00;;;1.83;;
65202;SDS011;51788;45.124;38.966;2023-10-13T10:53:41;12.75;;;1.90;;
65202;SDS011;51788;45.124;38.966;2023-10-13T10:56:10;7.55;;;2.13;;
65202;SDS011;51788;45.124;38.966;2023-10-13T10:59:10;8.23;;;2.33;;
65202;SDS011;51788;45.124;38.966;2023-10-13T11:01:47;11.98;;;2.83;;
65202;SDS011;51788;45.124;38.966;2023-10-13T11:04:13;3.03;;;2.03;;
65202;SDS011;51788;45.124;38.966;2023-10-13T11:06:50;3.75;;;2.25;;
65202;SDS011;51788;45.124;38.966;2023-10-13T11:09:38;5.45;;;1.95;;
65202;SDS011;51788;45.124;38.966;2023-10-13T11:12:11;15.27;;;2.60;;
65202;SDS011;51788;45.124;38.966;2023-10-13T11:14:48;4.25;;;2.40;;
65202;SDS011;51788;45.124;38.966;2023-10-13T11:17:25;15.60;;;2.83;;
65202;SDS011;51788;45.124;38.966;2023-10-13T11:20:17;3.70;;;2.70;;
65202;SDS011;51788;45.124;38.966;2023-10-13T11:22:51;2.78;;;2.58;;
65202;SDS011;51788;45.124;38.966;2023-10-13T11:25:24;5.75;;;4.38;;
65202;SDS011;51788;45.124;38.966;2023-10-13T11:30:42;7.53;;;4.18;;
65202;SDS011;51788;45.124;38.966;2023-10-13T11:35:44;8.65;;;4.05;;
65202;SDS011;51788;45.124;38.966;2023-10-13T11:38:19;9.88;;;4.05;;
65202;SDS011;51788;45.124;38.966;2023-10-13T11:40:58;8.32;;;3.88;;
65202;SDS011;51788;45.124;38.966;2023-10-13T11:49:00;4.72;;;3.50;;
65202;SDS011;51788;45.124;38.966;2023-10-13T11:51:31;3.05;;;2.40;;
65202;SDS011;51788;45.124;38.966;2023-10-13T11:53:58;4.85;;;2.70;;
65202;SDS011;51788;45.124;38.966;2023-10-13T11:56:24;6.03;;;2.53;;
65202;SDS011;51788;45.124;38.966;2023-10-13T11:58:50;2.53;;;2.28;;
65202;SDS011;51788;45.124;38.966;2023-10-13T12:01:17;2.70;;;2.50;;
65202;SDS011;51788;45.124;38.966;2023-10-13T12:03:44;6.93;;;2.75;;
65202;SDS011;51788;45.124;38.966;2023-10-13T12:06:31;7.28;;;3.05;;
65202;SDS011;51788;45.124;38.966;2023-10-13T12:09:04;5.18;;;3.72;;
65202;SDS011;51788;45.124;38.966;2023-10-13T12:11:43;10.38;;;3.35;;
65202;SDS011;51788;45.124;38.966;2023-10-13T12:14:15;8.13;;;2.35;;
65202;SDS011;51788;45.124;38.966;2023-10-13T12:16:47;4.50;;;2.37;;
65202;SDS011;51788;45.124;38.966;2023-10-13T12:19:20;7.28;;;2.63;;
65202;SDS011;51788;45.124;38.966;2023-10-13T12:21:50;14.13;;;3.05;;
65202;SDS011;51788;45.124;38.966;2023-10-13T12:24:20;6.97;;;3.13;;
65202;SDS011;51788;45.124;38.966;2023-10-13T12:27:05;16.48;;;2.92;;
65202;SDS011;51788;45.124;38.966;2023-10-13T12:29:48;9.45;;;3.40;;
65202;SDS011;51788;45.124;38.966;2023-10-13T12:32:17;12.00;;;3.55;;
65202;SDS011;51788;45.124;38.966;2023-10-13T12:34:57;8.70;;;3.67;;
65202;SDS011;51788;45.124;38.966;2023-10-13T12:37:23;9.27;;;3.03;;
65202;SDS011;51788;45.124;38.966;2023-10-13T12:40:02;3.75;;;3.40;;
65202;SDS011;51788;45.124;38.966;2023-10-13T12:42:47;10.95;;;2.83;;
65202;SDS011;51788;45.124;38.966;2023-10-13T12:45:32;4.82;;;2.40;;
65202;SDS011;51788;45.124;38.966;2023-10-13T12:48:16;14.77;;;2.97;;
65202;SDS011;51788;45.124;38.966;2023-10-13T12:51:01;4.75;;;2.45;;
65202;SDS011;51788;45.124;38.966;2023-10-13T12:53:54;3.03;;;2.10;;
65202;SDS011;51788;45.124;38.966;2023-10-13T12:56:30;10.15;;;2.70;;
65202;SDS011;51788;45.124;38.966;2023-10-13T12:58:56;2.55;;;1.90;;
65202;SDS011;51788;45.124;38.966;2023-10-13T13:01:22;3.42;;;2.45;;
65202;SDS011;51788;45.124;38.966;2023-10-13T13:03:51;2.35;;;2.15;;
65202;SDS011;51788;45.124;38.966;2023-10-13T13:06:24;4.03;;;2.72;;
65202;SDS011;51788;45.124;38.966;2023-10-13T13:11:21;3.47;;;3.15;;
65202;SDS011;51788;45.124;38.966;2023-10-13T13:13:47;4.60;;;3.45;;
65202;SDS011;51788;45.124;38.966;2023-10-13T13:16:14;4.22;;;2.90;;
65202;SDS011;51788;45.124;38.966;2023-10-13T13:18:49;13.40;;;3.13;;
65202;SDS011;51788;45.124;38.966;2023-10-13T13:21:16;7.65;;;2.90;;
65202;SDS011;51788;45.124;38.966;2023-10-13T13:23:52;7.50;;;2.70;;
65202;SDS011;51788;45.124;38.966;2023-10-13T13:26:21;11.68;;;3.03;;
65202;SDS011;51788;45.124;38.966;2023-10-13T13:28:48;4.20;;;2.97;;
65202;SDS011;51788;45.124;38.966;2023-10-13T13:31:18;8.45;;;3.72;;
65202;SDS011;51788;45.124;38.966;2023-10-13T13:33:44;7.00;;;3.35;;
65202;SDS011;51788;45.124;38.966;2023-10-13T13:36:10;6.45;;;2.65;;
65202;SDS011;51788;45.124;38.966;2023-10-13T13:38:40;9.55;;;3.15;;
65202;SDS011;51788;45.124;38.966;2023-10-13T13:41:12;12.23;;;3.22;;
65202;SDS011;51788;45.124;38.966;2023-10-13T13:43:48;11.18;;;4.40;;
65202;SDS011;51788;45.124;38.966;2023-10-13T13:46:18;16.15;;;5.53;;
65202;SDS011;51788;45.124;38.966;2023-10-13T13:48:50;8.68;;;5.75;;
65202;SDS011;51788;45.124;38.966;2023-10-13T13:51:17;17.95;;;6.88;;
65202;SDS011;51788;45.124;38.966;2023-10-13T13:53:52;20.80;;;6.80;;
65202;SDS011;51788;45.124;38.966;2023-10-13T13:56:18;17.95;;;7.30;;
65202;SDS011;51788;45.124;38.966;2023-10-13T13:58:44;25.83;;;8.38;;
65202;SDS011;51788;45.124;38.966;2023-10-13T14:01:11;21.95;;;7.47;;
65202;SDS011;51788;45.124;38.966;2023-10-13T14:03:41;18.98;;;8.75;;
65202;SDS011;51788;45.124;38.966;2023-10-13T14:06:11;18.65;;;10.40;;
65202;SDS011;51788;45.124;38.966;2023-10-13T14:08:44;18.20;;;10.32;;
65202;SDS011;51788;45.124;38.966;2023-10-13T14:11:14;27.33;;;10.23;;
65202;SDS011;51788;45.124;38.966;2023-10-13T14:13:59;31.77;;;11.00;;
65202;SDS011;51788;45.124;38.966;2023-10-13T14:16:29;37.20;;;19.67;;
65202;SDS011;51788;45.124;38.966;2023-10-13T14:18:58;42.67;;;22.52;;
65202;SDS011;51788;45.124;38.966;2023-10-13T14:21:27;76.63;;;22.60;;
65202;SDS011;51788;45.124;38.966;2023-10-13T14:23:53;61.15;;;19.58;;
65202;SDS011;51788;45.124;38.966;2023-10-13T14:26:20;42.72;;;17.63;;
65202;SDS011;51788;45.124;38.966;2023-10-13T14:28:47;39.33;;;21.45;;
65202;SDS011;51788;45.124;38.966;2023-10-13T14:31:30;43.47;;;17.75;;
65202;SDS011;51788;45.124;38.966;2023-10-13T14:33:56;47.45;;;16.25;;
65202;SDS011;51788;45.124;38.966;2023-10-13T14:36:23;37.17;;;15.38;;
65202;SDS011;51788;45.124;38.966;2023-10-13T14:38:54;37.22;;;15.52;;
65202;SDS011;51788;45.124;38.966;2023-10-13T14:41:20;36.78;;;15.45;;
65202;SDS011;51788;45.124;38.966;2023-10-13T14:43:47;71.82;;;19.85;;
65202;SDS011;51788;45.124;38.966;2023-10-13T14:46:16;50.65;;;20.13;;
65202;SDS011;51788;45.124;38.966;2023-10-13T14:48:43;61.33;;;21.10;;
65202;SDS011;51788;45.124;38.966;2023-10-13T14:51:12;49.95;;;23.92;;
65202;SDS011;51788;45.124;38.966;2023-10-13T14:53:39;66.40;;;25.45;;
65202;SDS011;51788;45.124;38.966;2023-10-13T14:56:09;56.78;;;24.60;;
65202;SDS011;51788;45.124;38.966;2023-10-13T14:58:39;52.55;;;22.90;;
65202;SDS011;51788;45.124;38.966;2023-10-13T15:01:16;54.83;;;22.58;;
65202;SDS011;51788;45.124;38.966;2023-10-13T15:03:43;49.67;;;22.48;;
65202;SDS011;51788;45.124;38.966;2023-10-13T15:06:23;53.20;;;22.67;;
65202;SDS011;51788;45.124;38.966;2023-10-13T15:08:51;64.30;;;23.33;;
65202;SDS011;51788;45.124;38.966;2023-10-13T15:11:21;66.88;;;23.60;;
65202;SDS011;51788;45.124;38.966;2023-10-13T15:13:52;92.35;;;29.15;;
65202;SDS011;51788;45.124;38.966;2023-10-13T15:16:19;83.40;;;27.15;;
65202;SDS011;51788;45.124;38.966;2023-10-13T15:18:47;79.38;;;28.85;;
65202;SDS011;51788;45.124;38.966;2023-10-13T15:21:20;100.00;;;31.10;;
65202;SDS011;51788;45.124;38.966;2023-10-13T15:23:52;128.27;;;35.05;;
65202;SDS011;51788;45.124;38.966;2023-10-13T15:26:21;120.68;;;31.92;;
65202;SDS011;51788;45.124;38.966;2023-10-13T15:28:49;91.78;;;33.05;;
65202;SDS011;51788;45.124;38.966;2023-10-13T15:31:15;114.25;;;34.50;;
65202;SDS011;51788;45.124;38.966;2023-10-13T15:33:52;108.20;;;37.72;;
65202;SDS011;51788;45.124;38.966;2023-10-13T15:36:23;147.25;;;41.10;;
65202;SDS011;51788;45.124;38.966;2023-10-13T15:38:50;138.80;;;38.60;;
65202;SDS011;51788;45.124;38.966;2023-10-13T15:41:23;101.68;;;36.85;;
65202;SDS011;51788;45.124;38.966;2023-10-13T15:43:49;126.07;;;38.92;;
65202;SDS011;51788;45.124;38.966;2023-10-13T15:46:17;115.25;;;38.42;;
65202;SDS011;51788;45.124;38.966;2023-10-13T15:48:50;132.63;;;42.30;;